KSZL/SZL METAR and TAF weather

Enter ICAO airport designator
Station Type Date Time Source
KSZL METAR 2022/01/29 08:56 UTC NOAA

KSZL 290856Z 18005KT 10SM CLR M08/M14 A3022 RMK AO2A SLP249 TMP M10C RWY 19 T10841140 57030 $


Station Type Date Time Source
KSZL Decoded METAR 2022/01/29 08:56 UTC NOAA

Whiteman Air Force Base, MO, United States (KSZL) 38-44N 093-33W
Jan 29, 2022 - 03:56 AM EST / 2022.01.29 0856 UTC
Wind: from the S (180 degrees) at 6 MPH (5 KT):0
Visibility: 10 mile(s):0
Sky conditions: clear
Temperature: 16.9 F (-8.4 C)
Windchill: 8 F (-13 C):1
Dew Point: 6.8 F (-14.0 C)
Relative Humidity: 63%
Pressure (altimeter): 30.22 in. Hg (1023 hPa)
Pressure tendency: 0.09 inches (3.0 hPa) lower than three hours ago
ob: KSZL 290856Z 18005KT 10SM CLR M08/M14 A3022 RMK AO2A SLP249 TMP M10C RWY 19 T10841140 57030
cycle: 9

Station Type Date Time Source
KSZL TAF 2022/01/29 03:59 UTC NOAA

TAF KSZL 290300Z 2903/3009 19006KT 9999 SKC QNH3003INS
BECMG 2914/2915 21012KT 9999 FEW200 QNH2985INS TX11/2921Z TNM11/2909Z

Example: see airport list